createdAt,value
2023-02-21T00:02:20.922Z,100034.13
2023-02-21T00:05:06.127Z,100035.00
2023-02-21T00:07:51.906Z,100036.00
2023-02-21T00:10:37.193Z,100034.13
2023-02-21T00:13:22.519Z,100027.16
2023-02-21T00:16:07.326Z,100013.94
2023-02-21T00:18:53.401Z,100025.31
2023-02-21T00:21:38.844Z,100016.41
2023-02-21T00:24:24.137Z,100018.16
2023-02-21T00:27:09.543Z,100017.22
2023-02-21T00:29:54.781Z,100015.47
2023-02-21T00:32:39.761Z,100026.84
2023-02-21T00:35:24.846Z,100033.81
2023-02-21T00:38:10.778Z,100025.13
2023-02-21T00:40:55.660Z,100018.84
2023-02-21T00:43:53.848Z,100019.88
2023-02-21T00:46:39.973Z,100012.66
2023-02-21T00:49:25.809Z,100017.06
2023-02-21T00:52:10.846Z,100011.81
2023-02-21T00:54:56.166Z,100008.16
2023-02-21T00:57:42.064Z,100015.13
2023-02-21T01:00:33.561Z,100004.66
2023-02-21T01:03:18.603Z,100007.22
2023-02-21T01:06:04.091Z,100007.13
2023-02-21T01:08:49.148Z,100015.91
2023-02-21T01:11:39.693Z,100006.19
2023-02-21T01:14:28.206Z,100013.19
2023-02-21T01:17:13.937Z,100020.16
2023-02-21T01:20:01.028Z,100020.16
2023-02-21T01:22:46.801Z,100020.06
2023-02-21T01:25:32.530Z,100026.16
2023-02-21T01:28:17.949Z,100016.56
2023-02-21T01:31:03.242Z,100013.00
2023-02-21T01:33:48.702Z,100014.72
2023-02-21T01:36:33.588Z,100006.81
2023-02-21T01:39:18.884Z,100001.53
2023-02-21T01:42:03.844Z,99998.91
2023-02-21T01:44:53.713Z,100005.09
2023-02-21T01:47:38.996Z,100011.22
2023-02-21T01:50:46.512Z,100001.88
2023-02-21T01:53:43.909Z,99996.59
2023-02-21T01:56:29.308Z,99994.75
2023-02-21T01:59:19.297Z,99993.03
2023-02-21T02:02:22.360Z,99992.44
2023-02-21T02:05:10.026Z,100007.13
2023-02-21T02:07:56.790Z,100004.56
2023-02-21T02:10:42.126Z,100005.44
2023-02-21T02:13:36.677Z,99996.94
2023-02-21T02:16:12.388Z,99995.78
2023-02-21T02:18:38.866Z,99988.69
2023-02-21T02:21:23.549Z,100003.75
2023-02-21T02:24:11.817Z,99995.78
2023-02-21T02:26:57.035Z,99987.75
2023-02-21T02:29:50.743Z,99996.75
2023-02-21T02:32:37.655Z,99993.22
2023-02-21T02:35:17.559Z,100004.50
2023-02-21T02:38:02.306Z,100000.16
2023-02-21T02:40:57.898Z,100001.03
2023-02-21T02:44:10.194Z,99994.91
2023-02-21T02:46:41.959Z,99990.22
2023-02-21T02:49:19.794Z,100003.56
2023-02-21T02:51:46.537Z,99989.41
2023-02-21T02:54:13.015Z,99994.75
2023-02-21T02:56:39.702Z,99997.38
2023-02-21T02:59:17.991Z,99995.84
2023-02-21T03:01:53.625Z,99995.94
2023-02-21T03:04:35.263Z,99980.13
2023-02-21T03:07:16.482Z,99998.41
2023-02-21T03:10:07.645Z,99996.59
2023-02-21T03:12:37.115Z,100003.56
2023-02-21T03:15:11.255Z,100013.25
2023-02-21T03:17:42.954Z,100012.31
2023-02-21T03:20:13.852Z,100016.66
2023-02-21T03:22:42.323Z,100014.81
2023-02-21T03:25:09.587Z,100016.56
2023-02-21T03:27:37.731Z,100027.97
2023-02-21T03:30:07.952Z,100015.63
2023-02-21T03:32:38.987Z,100014.81
2023-02-21T03:35:06.519Z,100012.16
2023-02-21T03:37:40.049Z,100012.16
2023-02-21T03:40:13.333Z,100020.06
2023-02-21T03:42:39.894Z,100021.75
2023-02-21T03:45:06.656Z,100028.81
2023-02-21T03:47:33.253Z,100029.66
2023-02-21T03:49:59.886Z,100024.31
2023-02-21T03:52:26.368Z,100035.69
2023-02-21T03:54:53.039Z,100032.22
2023-02-21T03:57:19.803Z,100022.50
2023-02-21T03:59:46.403Z,100032.13
2023-02-21T04:02:12.905Z,100031.19
2023-02-21T04:04:39.450Z,100027.63
2023-02-21T04:07:05.984Z,100033.84
2023-02-21T04:09:32.606Z,100031.19
2023-02-21T04:11:59.221Z,100036.47
2023-02-21T04:14:25.666Z,100032.06
2023-02-21T04:16:52.194Z,100039.03
2023-02-21T04:19:18.700Z,100035.53
2023-02-21T04:21:45.215Z,100034.59
2023-02-21T04:24:11.878Z,100038.06
2023-02-21T04:26:38.407Z,100045.91
2023-02-21T04:29:05.132Z,100036.22
2023-02-21T04:31:32.613Z,100045.91
2023-02-21T04:34:11.341Z,100045.03
2023-02-21T04:36:38.883Z,100047.59
2023-02-21T04:39:06.940Z,100053.72
2023-02-21T04:41:34.257Z,100045.81
2023-02-21T04:44:00.852Z,100049.22
2023-02-21T04:46:27.385Z,100036.13
2023-02-21T04:48:54.281Z,100039.53
2023-02-21T04:51:23.872Z,100035.28
2023-02-21T04:53:51.610Z,100037.91
2023-02-21T04:56:21.059Z,100037.91
2023-02-21T04:58:48.553Z,100033.59
2023-02-21T05:01:17.442Z,100030.97
2023-02-21T05:03:44.411Z,100031.88
2023-02-21T05:08:52.052Z,100025.00
2023-02-21T05:11:20.508Z,100027.69
2023-02-21T05:13:47.369Z,100023.38
2023-02-21T05:16:14.287Z,100019.88
2023-02-21T05:18:45.786Z,100024.47
2023-02-21T05:21:13.435Z,100016.56
2023-02-21T05:23:41.187Z,100015.75
2023-02-21T05:26:13.435Z,100014.97
2023-02-21T05:28:40.906Z,100007.06
2023-02-21T05:31:08.320Z,100017.66
2023-02-21T05:33:35.103Z,100008.00
2023-02-21T05:36:01.747Z,100008.06
2023-02-21T05:38:28.339Z,100009.03
2023-02-21T05:40:54.911Z,100007.22
2023-02-21T05:43:21.435Z,100012.56
2023-02-21T05:45:47.992Z,100017.81
2023-02-21T05:48:14.766Z,100013.50
2023-02-21T05:50:41.401Z,100010.88
2023-02-21T05:53:10.469Z,100010.03
2023-02-21T05:55:37.659Z,100010.88
2023-02-21T05:58:04.189Z,100015.19
2023-02-21T06:00:31.415Z,100013.50
2023-02-21T06:02:57.924Z,100016.06
2023-02-21T06:05:24.919Z,100023.09
2023-02-21T06:07:51.714Z,100022.19
2023-02-21T06:10:19.668Z,100014.28
2023-02-21T06:12:46.565Z,100019.56
2023-02-21T06:15:13.322Z,100018.69
2023-02-21T06:17:41.009Z,100022.19
2023-02-21T06:20:14.848Z,100018.00
2023-02-21T06:22:41.454Z,100014.44
2023-02-21T06:25:08.480Z,100015.38
2023-02-21T06:27:35.138Z,100013.56
2023-02-21T06:30:02.691Z,100023.38
2023-02-21T06:32:29.261Z,100025.13
2023-02-21T06:34:55.890Z,100014.59
2023-02-21T06:37:22.391Z,100011.97
2023-02-21T06:39:48.900Z,100016.31
2023-02-21T06:42:16.936Z,100015.47
2023-02-21T06:44:48.216Z,100019.94
2023-02-21T06:47:16.210Z,100011.97
2023-02-21T06:49:43.406Z,100020.81
2023-02-21T06:52:10.765Z,100016.47
2023-02-21T06:54:37.634Z,100017.41
2023-02-21T06:57:05.749Z,100013.06
2023-02-21T06:59:32.684Z,100013.13
2023-02-21T07:01:59.299Z,100016.72
2023-02-21T07:04:25.964Z,100016.78
2023-02-21T07:06:53.019Z,100015.09
2023-02-21T07:09:19.524Z,100023.00
2023-02-21T07:11:47.147Z,100025.63
2023-02-21T07:14:14.354Z,100022.25
2023-02-21T07:16:40.930Z,100027.50
2023-02-21T07:19:07.491Z,100030.16
2023-02-21T07:21:34.009Z,100029.13
2023-02-21T07:24:00.659Z,100035.34
2023-02-21T07:26:27.171Z,100036.16
2023-02-21T07:28:53.634Z,100030.16
2023-02-21T07:31:20.775Z,100038.88
2023-02-21T07:33:47.496Z,100038.88
2023-02-21T07:36:14.164Z,100043.31
2023-02-21T07:38:40.601Z,100043.31
2023-02-21T07:41:07.095Z,100038.88
2023-02-21T07:43:33.565Z,100035.41
2023-02-21T07:46:00.913Z,100037.97
2023-02-21T07:48:27.570Z,100044.06
2023-02-21T07:50:54.130Z,100040.50
2023-02-21T07:53:20.928Z,100048.38
2023-02-21T07:55:47.432Z,100042.28
2023-02-21T07:58:13.992Z,100050.13
2023-02-21T08:00:40.794Z,100049.19
2023-02-21T08:03:07.604Z,100048.31
2023-02-21T08:05:34.138Z,100043.13
2023-02-21T08:08:00.789Z,100044.06
2023-02-21T08:10:28.122Z,100043.31
2023-02-21T08:12:54.755Z,100042.44
2023-02-21T08:15:21.308Z,100046.03
2023-02-21T08:17:49.363Z,100046.03
2023-02-21T08:20:16.186Z,100056.47
2023-02-21T08:22:42.698Z,100053.66
2023-02-21T08:25:11.664Z,100058.00
2023-02-21T08:27:42.219Z,100057.06
2023-02-21T08:30:11.165Z,100050.78
2023-02-21T08:32:38.122Z,100057.69
2023-02-21T08:35:06.291Z,100060.22
2023-02-21T08:37:36.160Z,100064.63
2023-02-21T08:40:04.047Z,100057.53
2023-02-21T08:42:30.664Z,100061.94
2023-02-21T08:44:57.729Z,100070.69
2023-02-21T08:47:24.593Z,100075.09
2023-02-21T08:49:51.105Z,100065.41
2023-02-21T08:52:19.319Z,100071.53
2023-02-21T08:54:46.139Z,100068.81
2023-02-21T08:57:13.735Z,100075.78
2023-02-21T08:59:42.660Z,100073.06
2023-02-21T09:02:47.096Z,100083.66
2023-02-21T09:05:24.587Z,100086.31
2023-02-21T09:07:55.013Z,100093.22
2023-02-21T09:10:22.304Z,100076.56
2023-02-21T09:12:48.864Z,100085.31
2023-02-21T09:15:16.738Z,100080.88
2023-02-21T09:17:43.967Z,100079.03
2023-02-21T09:20:15.431Z,100079.03
2023-02-21T09:22:45.639Z,100075.47
2023-02-21T09:25:13.181Z,100071.81
2023-02-21T09:27:40.769Z,100073.50
2023-02-21T09:30:11.726Z,100073.41
2023-02-21T09:32:39.942Z,100064.56
2023-02-21T09:35:07.208Z,100060.19
2023-02-21T09:37:36.827Z,100062.72
2023-02-21T09:40:05.125Z,100062.72
2023-02-21T09:42:32.183Z,100063.56
2023-02-21T09:44:59.462Z,100065.22
2023-02-21T09:47:33.645Z,100065.28
2023-02-21T09:50:06.897Z,100065.97
2023-02-21T09:52:37.596Z,100071.91
2023-02-21T09:55:29.630Z,100071.06
2023-02-21T09:57:57.087Z,100075.84
2023-02-21T10:00:35.540Z,100080.16
2023-02-21T10:03:20.065Z,100079.13
2023-02-21T10:05:54.049Z,100083.38
2023-02-21T10:08:37.135Z,100082.63
2023-02-21T10:11:21.865Z,100081.78
2023-02-21T10:13:48.534Z,100076.34
2023-02-21T10:16:32.065Z,100082.63
2023-02-21T10:19:23.796Z,100078.38
2023-02-21T10:21:51.063Z,100081.63
2023-02-21T10:24:21.829Z,100086.03
2023-02-21T10:27:12.410Z,100081.69
2023-02-21T10:29:57.595Z,100083.31
2023-02-21T10:32:25.565Z,100089.09
2023-02-21T10:34:54.870Z,100088.94
2023-02-21T10:37:24.446Z,100087.16
2023-02-21T10:39:59.715Z,100085.34
2023-02-21T10:42:37.272Z,100087.03
2023-02-21T10:45:06.699Z,100091.41
2023-02-21T10:47:41.045Z,100092.44
2023-02-21T10:50:12.063Z,100099.31
2023-02-21T10:52:50.629Z,100104.75
2023-02-21T10:55:32.147Z,100094.94
2023-02-21T10:58:07.826Z,100101.25
2023-02-21T11:00:38.253Z,100095.91
2023-02-21T11:03:27.577Z,100105.50
2023-02-21T11:05:59.695Z,100101.84
2023-02-21T11:08:44.152Z,100095.75
2023-02-21T11:11:11.196Z,100088.25
2023-02-21T11:13:38.016Z,100080.94
2023-02-21T11:16:32.593Z,100086.13
2023-02-21T11:19:06.966Z,100093.59
2023-02-21T11:21:33.530Z,100085.44
2023-02-21T11:24:04.266Z,100088.81
2023-02-21T11:26:38.557Z,100089.50
2023-02-21T11:29:16.845Z,100094.75
2023-02-21T11:31:44.383Z,100090.25
2023-02-21T11:34:13.643Z,100079.97
2023-02-21T11:36:43.601Z,100085.44
2023-02-21T11:39:27.792Z,100075.13
2023-02-21T11:41:56.469Z,100075.91
2023-02-21T11:44:35.172Z,100077.78
2023-02-21T11:47:16.799Z,100069.69
2023-02-21T11:49:53.529Z,100066.28
2023-02-21T11:52:31.851Z,100074.97
2023-02-21T11:54:58.484Z,100069.53
2023-02-21T11:57:49.962Z,100065.38
2023-02-21T12:01:01.874Z,100064.59
2023-02-21T12:03:50.296Z,100054.03
2023-02-21T12:06:21.757Z,100052.19
2023-02-21T12:09:16.191Z,100053.09
2023-02-21T12:12:20.674Z,100056.69
2023-02-21T12:15:05.944Z,100060.34
2023-02-21T12:17:48.951Z,100053.38
2023-02-21T12:20:27.674Z,100056.19
2023-02-21T12:23:08.396Z,100058.16
2023-02-21T12:26:07.758Z,100054.94
2023-02-21T12:29:11.228Z,100043.69
2023-02-21T12:31:49.780Z,100053.41
2023-02-21T12:34:28.481Z,100046.41
2023-02-21T12:37:13.767Z,100045.81
2023-02-21T12:39:49.224Z,100044.88
2023-02-21T12:42:38.886Z,100037.06
2023-02-21T12:45:23.558Z,100039.59
2023-02-21T12:48:00.243Z,100044.13
2023-02-21T12:50:52.023Z,100034.59
2023-02-21T12:53:31.023Z,100033.66
2023-02-21T12:56:10.452Z,100030.94
2023-02-21T12:58:50.306Z,100030.78
2023-02-21T13:01:34.435Z,100037.75
2023-02-21T13:04:15.380Z,100027.03
2023-02-21T13:06:53.478Z,100036.47
2023-02-21T13:09:36.312Z,100028.38
2023-02-21T13:12:14.683Z,100029.91
2023-02-21T13:14:47.804Z,100032.28
2023-02-21T13:17:16.809Z,100030.22
2023-02-21T13:20:01.580Z,100030.81
2023-02-21T13:23:24.311Z,100033.34
2023-02-21T13:25:56.452Z,100018.09
2023-02-21T13:28:25.634Z,100017.94
2023-02-21T13:30:58.390Z,100021.31
2023-02-21T13:33:30.015Z,100008.06
2023-02-21T13:35:58.951Z,100007.03
2023-02-21T13:38:31.421Z,100006.19
2023-02-21T13:41:16.991Z,100009.16
2023-02-21T13:43:51.968Z,100015.47
2023-02-21T13:46:30.734Z,100010.72
2023-02-21T13:49:34.753Z,100001.59
2023-02-21T13:52:28.693Z,100004.84
2023-02-21T13:55:10.433Z,100009.50
2023-02-21T13:58:09.920Z,100004.66
2023-02-21T14:00:36.343Z,99997.78
2023-02-21T14:03:09.706Z,99993.03
2023-02-21T14:05:45.857Z,99995.91
2023-02-21T14:08:35.042Z,99992.78
2023-02-21T14:11:04.465Z,99995.41
2023-02-21T14:13:38.298Z,99997.38
2023-02-21T14:16:07.653Z,99988.63
2023-02-21T14:18:45.893Z,99988.97
2023-02-21T14:21:34.626Z,99994.25
2023-02-21T14:24:10.296Z,99988.09
2023-02-21T14:26:48.712Z,99989.91
2023-02-21T14:29:29.702Z,99991.75
2023-02-21T14:32:05.153Z,99988.19
2023-02-21T14:34:39.387Z,99992.72
2023-02-21T14:37:21.961Z,99984.81
2023-02-21T14:40:00.356Z,99988.28
2023-02-21T14:42:38.041Z,99989.06
2023-02-21T14:45:10.394Z,99983.69
2023-02-21T14:48:15.654Z,99991.59
2023-02-21T14:51:05.905Z,99975.53
2023-02-21T14:53:57.093Z,99981.06
2023-02-21T14:56:26.421Z,99986.91
2023-02-21T14:59:08.064Z,99988.19
2023-02-21T15:01:44.408Z,99983.84
2023-02-21T15:04:44.131Z,99984.22
2023-02-21T15:07:24.482Z,99981.50
2023-02-21T15:10:07.768Z,99990.38
2023-02-21T15:12:37.372Z,99987.69
2023-02-21T15:15:04.304Z,99980.47
2023-02-21T15:17:30.796Z,99986.78
2023-02-21T15:20:23.715Z,99982.69
2023-02-21T15:23:20.590Z,99982.69
2023-02-21T15:25:55.312Z,99987.75
2023-02-21T15:28:28.107Z,99987.75
2023-02-21T15:31:07.844Z,99991.25
2023-02-21T15:33:36.979Z,99992.03
2023-02-21T15:36:20.679Z,99997.38
2023-02-21T15:38:52.295Z,99993.13
2023-02-21T15:41:28.439Z,99990.38
2023-02-21T15:44:19.454Z,99997.78
2023-02-21T15:46:55.277Z,99998.63
2023-02-21T15:49:26.900Z,100000.34
2023-02-21T15:51:53.736Z,99988.84
2023-02-21T15:54:20.224Z,99988.84
2023-02-21T15:56:46.681Z,99987.09
2023-02-21T15:59:25.695Z,99979.34
2023-02-21T16:02:16.917Z,99988.09
2023-02-21T16:04:46.311Z,99989.56
2023-02-21T16:07:37.317Z,99985.22
2023-02-21T16:10:08.925Z,99981.66
2023-02-21T16:12:39.570Z,99985.13
2023-02-21T16:15:28.514Z,99988.69
2023-02-21T16:18:09.557Z,99991.41
2023-02-21T16:20:42.360Z,99986.06
2023-02-21T16:23:19.328Z,99987.75
2023-02-21T16:26:04.063Z,99996.59
2023-02-21T16:28:31.374Z,99986.94
2023-02-21T16:31:00.831Z,99990.38
2023-02-21T16:33:28.584Z,99988.69
2023-02-21T16:35:55.890Z,99983.50
2023-02-21T16:38:24.262Z,99986.22
2023-02-21T16:40:53.374Z,99982.69
2023-02-21T16:43:29.243Z,99993.22
2023-02-21T16:45:57.809Z,99988.84
2023-02-21T16:48:32.911Z,99995.94
2023-02-21T16:51:02.946Z,99996.75
2023-02-21T16:53:29.808Z,99993.38
2023-02-21T16:55:57.651Z,99996.09
2023-02-21T16:58:28.087Z,100004.06
2023-02-21T17:01:00.803Z,99997.97
2023-02-21T17:03:28.563Z,100003.91
2023-02-21T17:05:57.778Z,99998.78
2023-02-21T17:08:25.593Z,100003.91
2023-02-21T17:10:52.381Z,100003.03
2023-02-21T17:13:19.524Z,99998.63
2023-02-21T17:15:47.721Z,100002.97
2023-02-21T17:18:14.666Z,99995.94
2023-02-21T17:20:41.250Z,99998.47
2023-02-21T17:23:07.776Z,100004.56
2023-02-21T17:25:36.336Z,100001.88
2023-02-21T17:28:03.945Z,100002.81
2023-02-21T17:30:31.509Z,100008.06
2023-02-21T17:32:58.171Z,100007.13
2023-02-21T17:35:24.774Z,100009.84
2023-02-21T17:37:51.562Z,100003.75
2023-02-21T17:40:20.622Z,100008.16
2023-02-21T17:42:47.539Z,100015.03
2023-02-21T17:45:18.261Z,100006.38
2023-02-21T17:47:44.891Z,100008.00
2023-02-21T17:50:13.666Z,100007.91
2023-02-21T17:52:40.497Z,100002.66
2023-02-21T17:55:08.080Z,99993.81
2023-02-21T17:57:37.777Z,100002.56
2023-02-21T18:00:16.905Z,100003.56
2023-02-21T18:02:43.488Z,100001.72
2023-02-21T18:05:10.082Z,99992.88
2023-02-21T18:07:36.776Z,99999.94
2023-02-21T18:10:04.643Z,100003.47
2023-02-21T18:12:34.946Z,100006.97
2023-02-21T18:15:01.650Z,100005.19
2023-02-21T18:17:28.117Z,100003.41
2023-02-21T18:19:54.690Z,100002.47
2023-02-21T18:22:21.206Z,100005.09
2023-02-21T18:24:47.888Z,99998.81
2023-02-21T18:27:15.773Z,99996.09
2023-02-21T18:29:42.272Z,100001.28
2023-02-21T18:32:08.752Z,100001.19
2023-02-21T18:34:35.223Z,100013.44
2023-02-21T18:37:01.762Z,100003.59
2023-02-21T18:39:28.404Z,100003.47
2023-02-21T18:41:55.052Z,100004.25
2023-02-21T18:44:21.812Z,99997.09
2023-02-21T18:46:54.532Z,100001.53
2023-02-21T18:49:22.818Z,100009.28
2023-02-21T18:51:49.690Z,100005.63
2023-02-21T18:54:17.182Z,100006.53
2023-02-21T18:56:49.259Z,100007.56
2023-02-21T18:59:20.719Z,100004.84
2023-02-21T19:01:55.284Z,100008.59
2023-02-21T19:04:22.326Z,100007.66
2023-02-21T19:06:48.810Z,100003.41
2023-02-21T19:09:15.368Z,99999.06
2023-02-21T19:11:41.929Z,99996.59
2023-02-21T19:14:09.554Z,99990.50
2023-02-21T19:16:36.112Z,99992.34
2023-02-21T19:19:05.501Z,99988.97
2023-02-21T19:21:32.381Z,99984.53
2023-02-21T19:23:59.250Z,99982.84
2023-02-21T19:26:29.781Z,99988.09
2023-02-21T19:28:56.631Z,99985.47
2023-02-21T19:31:23.564Z,99983.69
2023-02-21T19:33:50.330Z,99983.78
2023-02-21T19:36:17.189Z,99982.75
2023-02-21T19:38:43.758Z,99982.69
2023-02-21T19:41:10.470Z,99980.97
2023-02-21T19:43:37.174Z,99979.25
2023-02-21T19:46:04.064Z,99980.13
2023-02-21T19:48:31.129Z,99978.28
2023-02-21T19:50:57.860Z,99977.31
2023-02-21T19:53:24.334Z,99974.69
2023-02-21T19:55:50.912Z,99970.25
2023-02-21T19:58:19.845Z,99970.25
2023-02-21T20:00:46.596Z,99970.16
2023-02-21T20:03:13.130Z,99963.13
2023-02-21T20:05:39.668Z,99968.41
2023-02-21T20:08:06.367Z,99963.97
2023-02-21T20:10:32.904Z,99963.78
2023-02-21T20:12:59.432Z,99964.66
2023-02-21T20:15:25.955Z,99961.16
2023-02-21T20:17:54.234Z,99962.09
2023-02-21T20:20:21.007Z,99961.25
2023-02-21T20:22:47.609Z,99966.50
2023-02-21T20:25:14.132Z,99967.47
2023-02-21T20:27:41.879Z,99972.81
2023-02-21T20:30:09.740Z,99969.44
2023-02-21T20:32:36.390Z,99961.59
2023-02-21T20:35:03.607Z,99959.91
2023-02-21T20:37:31.394Z,99958.09
2023-02-21T20:39:58.983Z,99951.06
2023-02-21T20:42:25.512Z,99953.63
2023-02-21T20:44:52.137Z,99954.44
2023-02-21T20:47:19.581Z,99948.16
2023-02-21T20:49:47.331Z,99949.00
2023-02-21T20:52:15.571Z,99944.59
2023-02-21T20:54:42.846Z,99943.59
2023-02-21T20:57:09.792Z,99946.97
2023-02-21T20:59:38.887Z,99946.06
2023-02-21T21:02:06.378Z,99945.09
2023-02-21T21:04:36.295Z,99943.31
2023-02-21T21:07:14.957Z,99943.50
2023-02-21T21:09:41.795Z,99941.59
2023-02-21T21:12:11.575Z,99950.47
2023-02-21T21:14:42.605Z,99944.31
2023-02-21T21:17:13.347Z,99948.78
2023-02-21T21:19:41.978Z,99944.41
2023-02-21T21:22:12.403Z,99945.44
2023-02-21T21:24:39.467Z,99945.34
2023-02-21T21:27:09.906Z,99948.16
2023-02-21T21:29:38.404Z,99940.38
2023-02-21T21:32:05.626Z,99937.72
2023-02-21T21:34:33.142Z,99936.13
2023-02-21T21:37:01.761Z,99938.91
2023-02-21T21:39:28.259Z,99937.31
2023-02-21T21:42:05.131Z,99946.31
2023-02-21T21:44:32.810Z,99936.72
2023-02-21T21:47:00.962Z,99938.56
2023-02-21T21:49:30.993Z,99942.22
2023-02-21T21:51:57.509Z,99933.47
2023-02-21T21:54:26.036Z,99933.56
2023-02-21T21:56:55.162Z,99927.53
2023-02-21T21:59:26.851Z,99930.91
2023-02-21T22:01:57.472Z,99921.25
2023-02-21T22:04:28.663Z,99920.31
2023-02-21T22:06:56.505Z,99914.94
2023-02-21T22:09:25.670Z,99915.81
2023-02-21T22:11:52.981Z,99913.09
2023-02-21T22:14:22.816Z,99914.78
2023-02-21T22:16:51.416Z,99904.16
2023-02-21T22:19:19.620Z,99905.78
2023-02-21T22:21:47.512Z,99901.25
2023-02-21T22:24:15.403Z,99902.03
2023-02-21T22:26:44.779Z,99895.66
2023-02-21T22:29:15.464Z,99897.25
2023-02-21T22:31:43.779Z,99888.34
2023-02-21T22:34:10.750Z,99883.81
2023-02-21T22:36:37.323Z,99882.91
2023-02-21T22:39:10.218Z,99878.47
2023-02-21T22:41:37.429Z,99878.28
2023-02-21T22:44:04.324Z,99878.22
2023-02-21T22:46:43.150Z,99873.03
2023-02-21T22:49:10.285Z,99878.94
2023-02-21T22:51:37.340Z,99871.91
2023-02-21T22:54:05.099Z,99872.78
2023-02-21T22:56:38.181Z,99869.19
2023-02-21T22:59:08.861Z,99865.59
2023-02-21T23:01:35.475Z,99869.94
2023-02-21T23:04:11.018Z,99856.00
2023-02-21T23:06:38.046Z,99852.44
2023-02-21T23:09:12.038Z,99850.75
2023-02-21T23:11:40.481Z,99854.31
2023-02-21T23:14:08.811Z,99848.94
2023-02-21T23:16:35.389Z,99843.78
2023-02-21T23:19:01.939Z,99839.44
2023-02-21T23:21:30.419Z,99837.66
2023-02-21T23:23:58.196Z,99841.22
2023-02-21T23:26:24.674Z,99829.09
2023-02-21T23:28:51.166Z,99830.00
2023-02-21T23:31:19.431Z,99841.41
2023-02-21T23:33:48.726Z,99833.66
2023-02-21T23:36:22.351Z,99832.84
2023-02-21T23:38:51.636Z,99824.16
2023-02-21T23:41:18.743Z,99826.72
2023-02-21T23:43:46.600Z,99822.47
2023-02-21T23:46:22.082Z,99829.59
2023-02-21T23:48:49.163Z,99817.94
2023-02-21T23:51:15.940Z,99817.13
2023-02-21T23:53:42.557Z,99824.94
2023-02-21T23:56:13.090Z,99819.75
2023-02-21T23:58:44.307Z,99824.94
